sensor_id;sensor_type;location;lat;lon;timestamp;P1;durP1;ratioP1;P2;durP2;ratioP2
25409;SDS011;13339;50.840;4.346;2024-02-16T00:00:55;4.40;;;2.73;;
25409;SDS011;13339;50.840;4.346;2024-02-16T00:03:22;3.73;;;2.93;;
25409;SDS011;13339;50.840;4.346;2024-02-16T00:05:47;5.10;;;3.00;;
25409;SDS011;13339;50.840;4.346;2024-02-16T00:08:15;5.03;;;2.93;;
25409;SDS011;13339;50.840;4.346;2024-02-16T00:10:41;5.60;;;2.97;;
25409;SDS011;13339;50.840;4.346;2024-02-16T00:13:07;4.23;;;2.80;;
25409;SDS011;13339;50.840;4.346;2024-02-16T00:15:33;4.87;;;2.70;;
25409;SDS011;13339;50.840;4.346;2024-02-16T00:17:59;6.97;;;3.17;;
25409;SDS011;13339;50.840;4.346;2024-02-16T00:20:25;7.27;;;3.10;;
25409;SDS011;13339;50.840;4.346;2024-02-16T00:22:51;4.97;;;2.90;;
25409;SDS011;13339;50.840;4.346;2024-02-16T00:25:16;7.43;;;2.93;;
25409;SDS011;13339;50.840;4.346;2024-02-16T00:27:43;8.30;;;3.00;;
25409;SDS011;13339;50.840;4.346;2024-02-16T00:30:09;7.60;;;3.30;;
25409;SDS011;13339;50.840;4.346;2024-02-16T00:32:37;4.70;;;2.70;;
25409;SDS011;13339;50.840;4.346;2024-02-16T00:35:03;5.67;;;2.70;;
25409;SDS011;13339;50.840;4.346;2024-02-16T00:37:29;4.77;;;3.10;;
25409;SDS011;13339;50.840;4.346;2024-02-16T00:39:54;7.30;;;3.00;;
25409;SDS011;13339;50.840;4.346;2024-02-16T00:42:21;4.43;;;2.80;;
25409;SDS011;13339;50.840;4.346;2024-02-16T00:44:51;5.50;;;2.87;;
25409;SDS011;13339;50.840;4.346;2024-02-16T00:47:17;3.97;;;3.07;;
25409;SDS011;13339;50.840;4.346;2024-02-16T00:49:43;3.70;;;2.87;;
25409;SDS011;13339;50.840;4.346;2024-02-16T00:52:08;6.00;;;2.80;;
25409;SDS011;13339;50.840;4.346;2024-02-16T00:54:35;7.97;;;3.13;;
25409;SDS011;13339;50.840;4.346;2024-02-16T00:57:01;5.90;;;3.70;;
25409;SDS011;13339;50.840;4.346;2024-02-16T00:59:28;4.60;;;3.03;;
25409;SDS011;13339;50.840;4.346;2024-02-16T01:01:54;4.03;;;2.97;;
25409;SDS011;13339;50.840;4.346;2024-02-16T01:04:19;9.90;;;3.03;;
25409;SDS011;13339;50.840;4.346;2024-02-16T01:06:45;3.37;;;3.07;;
25409;SDS011;13339;50.840;4.346;2024-02-16T01:09:11;4.93;;;2.93;;
25409;SDS011;13339;50.840;4.346;2024-02-16T01:11:38;3.50;;;2.90;;
25409;SDS011;13339;50.840;4.346;2024-02-16T01:14:06;4.40;;;3.07;;
25409;SDS011;13339;50.840;4.346;2024-02-16T01:16:32;3.90;;;2.87;;
25409;SDS011;13339;50.840;4.346;2024-02-16T01:18:58;4.87;;;3.17;;
25409;SDS011;13339;50.840;4.346;2024-02-16T01:21:23;8.17;;;3.30;;
25409;SDS011;13339;50.840;4.346;2024-02-16T01:23:49;5.30;;;3.40;;
25409;SDS011;13339;50.840;4.346;2024-02-16T01:26:14;8.67;;;3.70;;
25409;SDS011;13339;50.840;4.346;2024-02-16T01:28:40;4.77;;;3.10;;
25409;SDS011;13339;50.840;4.346;2024-02-16T01:31:06;6.00;;;3.47;;
25409;SDS011;13339;50.840;4.346;2024-02-16T01:33:31;5.20;;;3.37;;
25409;SDS011;13339;50.840;4.346;2024-02-16T01:35:59;7.37;;;3.47;;
25409;SDS011;13339;50.840;4.346;2024-02-16T01:38:25;7.70;;;3.73;;
25409;SDS011;13339;50.840;4.346;2024-02-16T01:40:51;7.67;;;3.50;;
25409;SDS011;13339;50.840;4.346;2024-02-16T01:43:19;4.83;;;3.07;;
25409;SDS011;13339;50.840;4.346;2024-02-16T01:45:45;4.70;;;3.10;;
25409;SDS011;13339;50.840;4.346;2024-02-16T01:48:11;5.73;;;3.00;;
25409;SDS011;13339;50.840;4.346;2024-02-16T01:50:38;5.53;;;2.90;;
25409;SDS011;13339;50.840;4.346;2024-02-16T01:53:04;7.33;;;3.20;;
25409;SDS011;13339;50.840;4.346;2024-02-16T01:55:30;3.73;;;2.90;;
25409;SDS011;13339;50.840;4.346;2024-02-16T01:57:56;4.07;;;2.77;;
25409;SDS011;13339;50.840;4.346;2024-02-16T02:00:24;6.70;;;3.27;;
25409;SDS011;13339;50.840;4.346;2024-02-16T02:02:50;9.37;;;3.03;;
25409;SDS011;13339;50.840;4.346;2024-02-16T02:05:17;4.30;;;3.20;;
25409;SDS011;13339;50.840;4.346;2024-02-16T02:07:43;5.00;;;3.20;;
25409;SDS011;13339;50.840;4.346;2024-02-16T02:10:09;3.90;;;3.00;;
25409;SDS011;13339;50.840;4.346;2024-02-16T02:12:38;6.60;;;3.03;;
25409;SDS011;13339;50.840;4.346;2024-02-16T02:15:04;4.87;;;3.30;;
25409;SDS011;13339;50.840;4.346;2024-02-16T02:17:30;5.23;;;3.20;;
25409;SDS011;13339;50.840;4.346;2024-02-16T02:19:56;5.17;;;3.03;;
25409;SDS011;13339;50.840;4.346;2024-02-16T02:22:21;4.00;;;3.30;;
25409;SDS011;13339;50.840;4.346;2024-02-16T02:24:47;3.83;;;2.80;;
25409;SDS011;13339;50.840;4.346;2024-02-16T02:27:14;4.20;;;3.10;;
25409;SDS011;13339;50.840;4.346;2024-02-16T02:29:40;5.63;;;2.90;;
25409;SDS011;13339;50.840;4.346;2024-02-16T02:32:07;5.30;;;3.00;;
25409;SDS011;13339;50.840;4.346;2024-02-16T02:34:33;7.90;;;3.53;;
25409;SDS011;13339;50.840;4.346;2024-02-16T02:37:01;3.63;;;2.90;;
25409;SDS011;13339;50.840;4.346;2024-02-16T02:39:29;4.90;;;2.93;;
25409;SDS011;13339;50.840;4.346;2024-02-16T02:41:55;5.07;;;2.93;;
25409;SDS011;13339;50.840;4.346;2024-02-16T02:44:20;6.20;;;3.00;;
25409;SDS011;13339;50.840;4.346;2024-02-16T02:46:46;4.83;;;3.30;;
25409;SDS011;13339;50.840;4.346;2024-02-16T02:49:12;3.97;;;2.90;;
25409;SDS011;13339;50.840;4.346;2024-02-16T02:51:37;9.13;;;3.57;;
25409;SDS011;13339;50.840;4.346;2024-02-16T02:54:03;4.57;;;3.00;;
25409;SDS011;13339;50.840;4.346;2024-02-16T02:56:29;4.83;;;3.13;;
25409;SDS011;13339;50.840;4.346;2024-02-16T02:58:54;5.97;;;3.27;;
25409;SDS011;13339;50.840;4.346;2024-02-16T03:01:20;6.77;;;3.20;;
25409;SDS011;13339;50.840;4.346;2024-02-16T03:03:47;5.23;;;3.10;;
25409;SDS011;13339;50.840;4.346;2024-02-16T03:06:16;6.57;;;3.70;;
25409;SDS011;13339;50.840;4.346;2024-02-16T03:08:43;5.07;;;3.40;;
25409;SDS011;13339;50.840;4.346;2024-02-16T03:11:09;7.70;;;3.50;;
25409;SDS011;13339;50.840;4.346;2024-02-16T03:13:35;6.37;;;3.07;;
25409;SDS011;13339;50.840;4.346;2024-02-16T03:16:01;6.50;;;3.67;;
25409;SDS011;13339;50.840;4.346;2024-02-16T03:18:30;5.10;;;3.07;;
25409;SDS011;13339;50.840;4.346;2024-02-16T03:20:57;6.37;;;3.07;;
25409;SDS011;13339;50.840;4.346;2024-02-16T03:23:22;8.23;;;3.40;;
25409;SDS011;13339;50.840;4.346;2024-02-16T03:25:48;5.83;;;3.40;;
25409;SDS011;13339;50.840;4.346;2024-02-16T03:28:14;8.30;;;3.40;;
25409;SDS011;13339;50.840;4.346;2024-02-16T03:30:40;5.90;;;3.03;;
25409;SDS011;13339;50.840;4.346;2024-02-16T03:33:07;9.67;;;3.33;;
25409;SDS011;13339;50.840;4.346;2024-02-16T03:35:33;8.50;;;3.60;;
25409;SDS011;13339;50.840;4.346;2024-02-16T03:37:59;4.93;;;2.93;;
25409;SDS011;13339;50.840;4.346;2024-02-16T03:40:25;7.27;;;3.40;;
25409;SDS011;13339;50.840;4.346;2024-02-16T03:42:51;11.70;;;3.33;;
25409;SDS011;13339;50.840;4.346;2024-02-16T03:45:17;4.97;;;3.13;;
25409;SDS011;13339;50.840;4.346;2024-02-16T03:47:43;7.03;;;3.60;;
25409;SDS011;13339;50.840;4.346;2024-02-16T03:50:09;6.00;;;3.30;;
25409;SDS011;13339;50.840;4.346;2024-02-16T03:52:35;6.00;;;3.10;;
25409;SDS011;13339;50.840;4.346;2024-02-16T03:55:01;4.40;;;2.90;;
25409;SDS011;13339;50.840;4.346;2024-02-16T03:57:27;3.77;;;2.77;;
25409;SDS011;13339;50.840;4.346;2024-02-16T03:59:53;6.57;;;3.03;;
25409;SDS011;13339;50.840;4.346;2024-02-16T04:02:19;10.37;;;3.77;;
25409;SDS011;13339;50.840;4.346;2024-02-16T04:04:45;6.17;;;3.40;;
25409;SDS011;13339;50.840;4.346;2024-02-16T04:07:10;7.83;;;3.70;;
25409;SDS011;13339;50.840;4.346;2024-02-16T04:09:37;5.33;;;3.27;;
25409;SDS011;13339;50.840;4.346;2024-02-16T04:12:03;10.10;;;3.53;;
25409;SDS011;13339;50.840;4.346;2024-02-16T04:14:29;7.17;;;3.43;;
25409;SDS011;13339;50.840;4.346;2024-02-16T04:16:58;10.13;;;3.60;;
25409;SDS011;13339;50.840;4.346;2024-02-16T04:19:25;6.73;;;3.57;;
25409;SDS011;13339;50.840;4.346;2024-02-16T04:21:51;7.10;;;3.40;;
25409;SDS011;13339;50.840;4.346;2024-02-16T04:24:17;4.43;;;3.20;;
25409;SDS011;13339;50.840;4.346;2024-02-16T04:26:43;7.13;;;3.10;;
25409;SDS011;13339;50.840;4.346;2024-02-16T04:29:09;7.40;;;3.53;;
25409;SDS011;13339;50.840;4.346;2024-02-16T04:31:34;8.70;;;3.60;;
25409;SDS011;13339;50.840;4.346;2024-02-16T04:34:00;5.73;;;3.67;;
25409;SDS011;13339;50.840;4.346;2024-02-16T04:36:26;8.43;;;3.10;;
25409;SDS011;13339;50.840;4.346;2024-02-16T04:38:52;6.73;;;3.20;;
25409;SDS011;13339;50.840;4.346;2024-02-16T04:41:19;10.93;;;3.73;;
25409;SDS011;13339;50.840;4.346;2024-02-16T04:43:45;8.13;;;3.73;;
25409;SDS011;13339;50.840;4.346;2024-02-16T04:46:14;11.13;;;3.80;;
25409;SDS011;13339;50.840;4.346;2024-02-16T04:48:40;8.63;;;3.50;;
25409;SDS011;13339;50.840;4.346;2024-02-16T04:51:06;8.23;;;3.50;;
25409;SDS011;13339;50.840;4.346;2024-02-16T04:53:32;7.10;;;3.47;;
25409;SDS011;13339;50.840;4.346;2024-02-16T04:55:57;4.83;;;3.17;;
25409;SDS011;13339;50.840;4.346;2024-02-16T04:58:23;7.10;;;3.33;;
25409;SDS011;13339;50.840;4.346;2024-02-16T05:00:49;4.33;;;3.20;;
25409;SDS011;13339;50.840;4.346;2024-02-16T05:03:14;5.67;;;3.40;;
25409;SDS011;13339;50.840;4.346;2024-02-16T05:05:40;6.00;;;3.10;;
25409;SDS011;13339;50.840;4.346;2024-02-16T05:08:06;5.63;;;3.37;;
25409;SDS011;13339;50.840;4.346;2024-02-16T05:10:32;6.93;;;3.90;;
25409;SDS011;13339;50.840;4.346;2024-02-16T05:12:57;11.23;;;3.63;;
25409;SDS011;13339;50.840;4.346;2024-02-16T05:15:23;10.23;;;3.33;;
25409;SDS011;13339;50.840;4.346;2024-02-16T05:17:49;8.00;;;3.80;;
25409;SDS011;13339;50.840;4.346;2024-02-16T05:20:15;5.63;;;3.50;;
25409;SDS011;13339;50.840;4.346;2024-02-16T05:22:41;7.03;;;3.50;;
25409;SDS011;13339;50.840;4.346;2024-02-16T05:25:09;6.30;;;3.27;;
25409;SDS011;13339;50.840;4.346;2024-02-16T05:27:35;7.13;;;4.10;;
25409;SDS011;13339;50.840;4.346;2024-02-16T05:30:01;6.07;;;3.50;;
25409;SDS011;13339;50.840;4.346;2024-02-16T05:32:29;8.63;;;3.70;;
25409;SDS011;13339;50.840;4.346;2024-02-16T05:34:54;5.20;;;3.40;;
25409;SDS011;13339;50.840;4.346;2024-02-16T05:37:20;6.57;;;3.13;;
25409;SDS011;13339;50.840;4.346;2024-02-16T05:39:47;9.23;;;4.00;;
25409;SDS011;13339;50.840;4.346;2024-02-16T05:42:21;11.87;;;3.87;;
25409;SDS011;13339;50.840;4.346;2024-02-16T05:44:48;7.03;;;3.80;;
25409;SDS011;13339;50.840;4.346;2024-02-16T05:47:14;8.00;;;3.53;;
25409;SDS011;13339;50.840;4.346;2024-02-16T05:49:40;9.10;;;4.33;;
25409;SDS011;13339;50.840;4.346;2024-02-16T05:52:06;8.67;;;4.00;;
25409;SDS011;13339;50.840;4.346;2024-02-16T05:54:45;12.53;;;3.93;;
25409;SDS011;13339;50.840;4.346;2024-02-16T05:57:12;8.27;;;4.23;;
25409;SDS011;13339;50.840;4.346;2024-02-16T05:59:39;8.83;;;3.90;;
25409;SDS011;13339;50.840;4.346;2024-02-16T06:02:05;11.13;;;4.20;;
25409;SDS011;13339;50.840;4.346;2024-02-16T06:04:35;9.63;;;4.40;;
25409;SDS011;13339;50.840;4.346;2024-02-16T06:07:01;8.63;;;3.70;;
25409;SDS011;13339;50.840;4.346;2024-02-16T06:09:27;7.30;;;3.90;;
25409;SDS011;13339;50.840;4.346;2024-02-16T06:11:59;6.90;;;3.90;;
25409;SDS011;13339;50.840;4.346;2024-02-16T06:14:28;9.20;;;4.20;;
25409;SDS011;13339;50.840;4.346;2024-02-16T06:16:54;8.17;;;4.10;;
25409;SDS011;13339;50.840;4.346;2024-02-16T06:19:20;13.40;;;5.00;;
25409;SDS011;13339;50.840;4.346;2024-02-16T06:21:45;12.13;;;4.70;;
25409;SDS011;13339;50.840;4.346;2024-02-16T06:24:11;10.27;;;5.00;;
25409;SDS011;13339;50.840;4.346;2024-02-16T06:26:37;9.57;;;4.53;;
25409;SDS011;13339;50.840;4.346;2024-02-16T06:29:02;10.37;;;4.83;;
25409;SDS011;13339;50.840;4.346;2024-02-16T06:31:28;12.80;;;5.20;;
25409;SDS011;13339;50.840;4.346;2024-02-16T06:33:53;10.17;;;4.03;;
25409;SDS011;13339;50.840;4.346;2024-02-16T06:36:19;7.87;;;4.50;;
25409;SDS011;13339;50.840;4.346;2024-02-16T06:38:44;9.13;;;4.47;;
25409;SDS011;13339;50.840;4.346;2024-02-16T06:41:12;8.83;;;4.97;;
25409;SDS011;13339;50.840;4.346;2024-02-16T06:43:37;9.37;;;5.23;;
25409;SDS011;13339;50.840;4.346;2024-02-16T06:46:03;11.27;;;5.03;;
25409;SDS011;13339;50.840;4.346;2024-02-16T06:48:30;9.53;;;5.30;;
25409;SDS011;13339;50.840;4.346;2024-02-16T06:50:55;10.37;;;5.00;;
25409;SDS011;13339;50.840;4.346;2024-02-16T06:53:21;8.60;;;5.00;;
25409;SDS011;13339;50.840;4.346;2024-02-16T06:55:47;10.73;;;5.30;;
25409;SDS011;13339;50.840;4.346;2024-02-16T06:58:12;14.17;;;5.50;;
25409;SDS011;13339;50.840;4.346;2024-02-16T07:00:38;11.03;;;5.07;;
25409;SDS011;13339;50.840;4.346;2024-02-16T07:03:07;14.83;;;5.50;;
25409;SDS011;13339;50.840;4.346;2024-02-16T07:05:33;11.43;;;5.57;;
25409;SDS011;13339;50.840;4.346;2024-02-16T07:07:58;12.17;;;5.43;;
25409;SDS011;13339;50.840;4.346;2024-02-16T07:10:24;18.27;;;5.60;;
25409;SDS011;13339;50.840;4.346;2024-02-16T07:12:49;11.77;;;5.37;;
25409;SDS011;13339;50.840;4.346;2024-02-16T07:15:15;8.87;;;5.43;;
25409;SDS011;13339;50.840;4.346;2024-02-16T07:17:40;9.57;;;5.13;;
25409;SDS011;13339;50.840;4.346;2024-02-16T07:20:06;11.67;;;5.80;;
25409;SDS011;13339;50.840;4.346;2024-02-16T07:22:33;13.97;;;5.67;;
25409;SDS011;13339;50.840;4.346;2024-02-16T07:24:59;16.33;;;5.70;;
25409;SDS011;13339;50.840;4.346;2024-02-16T07:27:25;13.60;;;6.07;;
25409;SDS011;13339;50.840;4.346;2024-02-16T07:29:51;12.40;;;6.17;;
25409;SDS011;13339;50.840;4.346;2024-02-16T07:32:17;13.70;;;6.23;;
25409;SDS011;13339;50.840;4.346;2024-02-16T07:34:46;16.47;;;5.83;;
25409;SDS011;13339;50.840;4.346;2024-02-16T07:37:12;16.73;;;6.17;;
25409;SDS011;13339;50.840;4.346;2024-02-16T07:39:38;15.10;;;6.23;;
25409;SDS011;13339;50.840;4.346;2024-02-16T07:42:05;12.03;;;6.13;;
25409;SDS011;13339;50.840;4.346;2024-02-16T07:44:34;13.50;;;6.33;;
25409;SDS011;13339;50.840;4.346;2024-02-16T07:47:00;14.00;;;6.67;;
25409;SDS011;13339;50.840;4.346;2024-02-16T07:49:26;13.87;;;6.33;;
25409;SDS011;13339;50.840;4.346;2024-02-16T07:51:51;14.13;;;5.90;;
25409;SDS011;13339;50.840;4.346;2024-02-16T07:54:17;13.57;;;6.90;;
25409;SDS011;13339;50.840;4.346;2024-02-16T07:56:42;20.57;;;7.23;;
25409;SDS011;13339;50.840;4.346;2024-02-16T07:59:08;14.47;;;7.30;;
25409;SDS011;13339;50.840;4.346;2024-02-16T08:01:34;16.07;;;7.70;;
25409;SDS011;13339;50.840;4.346;2024-02-16T08:03:59;18.93;;;7.63;;
25409;SDS011;13339;50.840;4.346;2024-02-16T08:06:25;17.63;;;7.43;;
25409;SDS011;13339;50.840;4.346;2024-02-16T08:08:51;14.00;;;7.23;;
25409;SDS011;13339;50.840;4.346;2024-02-16T08:11:17;14.30;;;6.73;;
25409;SDS011;13339;50.840;4.346;2024-02-16T08:13:43;13.70;;;7.37;;
25409;SDS011;13339;50.840;4.346;2024-02-16T08:16:09;17.27;;;6.97;;
25409;SDS011;13339;50.840;4.346;2024-02-16T08:18:35;14.77;;;6.40;;
25409;SDS011;13339;50.840;4.346;2024-02-16T08:21:01;11.50;;;6.03;;
25409;SDS011;13339;50.840;4.346;2024-02-16T08:23:26;13.90;;;6.53;;
25409;SDS011;13339;50.840;4.346;2024-02-16T08:25:52;12.87;;;6.27;;
25409;SDS011;13339;50.840;4.346;2024-02-16T08:28:18;16.30;;;6.77;;
25409;SDS011;13339;50.840;4.346;2024-02-16T08:30:43;16.27;;;6.73;;
25409;SDS011;13339;50.840;4.346;2024-02-16T08:33:12;18.07;;;6.47;;
25409;SDS011;13339;50.840;4.346;2024-02-16T08:35:38;12.93;;;5.57;;
25409;SDS011;13339;50.840;4.346;2024-02-16T08:38:04;12.43;;;6.10;;
25409;SDS011;13339;50.840;4.346;2024-02-16T08:40:31;14.93;;;6.13;;
25409;SDS011;13339;50.840;4.346;2024-02-16T08:42:56;13.27;;;6.33;;
25409;SDS011;13339;50.840;4.346;2024-02-16T08:45:23;20.47;;;6.57;;
25409;SDS011;13339;50.840;4.346;2024-02-16T08:47:49;17.80;;;6.97;;
25409;SDS011;13339;50.840;4.346;2024-02-16T08:50:14;13.07;;;6.73;;
25409;SDS011;13339;50.840;4.346;2024-02-16T08:52:40;14.30;;;6.63;;
25409;SDS011;13339;50.840;4.346;2024-02-16T08:55:06;15.63;;;6.63;;
25409;SDS011;13339;50.840;4.346;2024-02-16T08:57:32;13.77;;;6.20;;
25409;SDS011;13339;50.840;4.346;2024-02-16T08:59:58;16.80;;;6.47;;
25409;SDS011;13339;50.840;4.346;2024-02-16T09:02:24;12.47;;;6.90;;
25409;SDS011;13339;50.840;4.346;2024-02-16T09:04:49;17.23;;;7.40;;
25409;SDS011;13339;50.840;4.346;2024-02-16T09:07:15;14.83;;;7.30;;
25409;SDS011;13339;50.840;4.346;2024-02-16T09:09:41;14.37;;;6.50;;
25409;SDS011;13339;50.840;4.346;2024-02-16T09:12:06;20.20;;;7.60;;
25409;SDS011;13339;50.840;4.346;2024-02-16T09:14:32;19.10;;;7.43;;
25409;SDS011;13339;50.840;4.346;2024-02-16T09:16:57;19.10;;;7.80;;
25409;SDS011;13339;50.840;4.346;2024-02-16T09:19:23;21.23;;;7.57;;
25409;SDS011;13339;50.840;4.346;2024-02-16T09:21:49;18.63;;;8.50;;
25409;SDS011;13339;50.840;4.346;2024-02-16T09:24:16;19.80;;;9.17;;
25409;SDS011;13339;50.840;4.346;2024-02-16T09:26:46;20.63;;;9.97;;
25409;SDS011;13339;50.840;4.346;2024-02-16T09:29:12;23.90;;;9.80;;
25409;SDS011;13339;50.840;4.346;2024-02-16T09:31:39;23.70;;;9.43;;
25409;SDS011;13339;50.840;4.346;2024-02-16T09:34:07;23.00;;;9.37;;
25409;SDS011;13339;50.840;4.346;2024-02-16T09:36:33;23.30;;;9.50;;
25409;SDS011;13339;50.840;4.346;2024-02-16T09:39:01;20.90;;;9.87;;
25409;SDS011;13339;50.840;4.346;2024-02-16T09:41:26;19.27;;;9.50;;
25409;SDS011;13339;50.840;4.346;2024-02-16T09:43:53;16.73;;;8.57;;
25409;SDS011;13339;50.840;4.346;2024-02-16T09:46:19;18.20;;;8.57;;
25409;SDS011;13339;50.840;4.346;2024-02-16T09:48:46;17.03;;;8.70;;
25409;SDS011;13339;50.840;4.346;2024-02-16T09:51:17;18.30;;;8.77;;
25409;SDS011;13339;50.840;4.346;2024-02-16T09:53:43;15.63;;;7.50;;
25409;SDS011;13339;50.840;4.346;2024-02-16T09:56:20;12.87;;;6.63;;
25409;SDS011;13339;50.840;4.346;2024-02-16T09:58:46;9.90;;;6.47;;
25409;SDS011;13339;50.840;4.346;2024-02-16T10:01:17;16.87;;;6.83;;
25409;SDS011;13339;50.840;4.346;2024-02-16T10:03:45;14.63;;;6.27;;
25409;SDS011;13339;50.840;4.346;2024-02-16T10:06:10;16.07;;;6.57;;
25409;SDS011;13339;50.840;4.346;2024-02-16T10:11:17;18.07;;;6.27;;
25409;SDS011;13339;50.840;4.346;2024-02-16T10:13:57;13.23;;;6.33;;
25409;SDS011;13339;50.840;4.346;2024-02-16T10:16:23;12.93;;;6.67;;
25409;SDS011;13339;50.840;4.346;2024-02-16T10:18:49;16.97;;;7.00;;
25409;SDS011;13339;50.840;4.346;2024-02-16T10:21:25;12.67;;;6.20;;
25409;SDS011;13339;50.840;4.346;2024-02-16T10:24:00;14.37;;;6.40;;
25409;SDS011;13339;50.840;4.346;2024-02-16T10:26:30;18.10;;;7.27;;
25409;SDS011;13339;50.840;4.346;2024-02-16T10:28:56;14.43;;;6.50;;
25409;SDS011;13339;50.840;4.346;2024-02-16T10:31:23;16.03;;;7.17;;
25409;SDS011;13339;50.840;4.346;2024-02-16T10:33:59;14.70;;;7.33;;
25409;SDS011;13339;50.840;4.346;2024-02-16T10:36:31;13.97;;;7.27;;
25409;SDS011;13339;50.840;4.346;2024-02-16T10:38:57;13.40;;;7.50;;
25409;SDS011;13339;50.840;4.346;2024-02-16T10:41:26;19.80;;;6.80;;
25409;SDS011;13339;50.840;4.346;2024-02-16T10:43:54;12.90;;;7.47;;
25409;SDS011;13339;50.840;4.346;2024-02-16T10:46:21;22.40;;;7.27;;
25409;SDS011;13339;50.840;4.346;2024-02-16T10:48:48;15.93;;;8.30;;
25409;SDS011;13339;50.840;4.346;2024-02-16T10:51:13;16.00;;;7.60;;
25409;SDS011;13339;50.840;4.346;2024-02-16T10:53:42;13.23;;;7.97;;
25409;SDS011;13339;50.840;4.346;2024-02-16T10:56:09;21.40;;;8.07;;
25409;SDS011;13339;50.840;4.346;2024-02-16T10:58:37;20.23;;;7.77;;
25409;SDS011;13339;50.840;4.346;2024-02-16T11:01:09;14.97;;;8.53;;
25409;SDS011;13339;50.840;4.346;2024-02-16T11:03:38;19.90;;;8.33;;
25409;SDS011;13339;50.840;4.346;2024-02-16T11:06:16;17.63;;;8.17;;
25409;SDS011;13339;50.840;4.346;2024-02-16T11:08:42;22.70;;;9.27;;
25409;SDS011;13339;50.840;4.346;2024-02-16T11:11:08;19.43;;;8.90;;
25409;SDS011;13339;50.840;4.346;2024-02-16T11:13:37;13.07;;;8.27;;
25409;SDS011;13339;50.840;4.346;2024-02-16T11:16:12;20.93;;;8.30;;
25409;SDS011;13339;50.840;4.346;2024-02-16T11:18:41;22.80;;;8.93;;
25409;SDS011;13339;50.840;4.346;2024-02-16T11:21:12;25.00;;;9.67;;
25409;SDS011;13339;50.840;4.346;2024-02-16T11:23:39;20.07;;;8.97;;
25409;SDS011;13339;50.840;4.346;2024-02-16T11:26:06;18.93;;;9.73;;
25409;SDS011;13339;50.840;4.346;2024-02-16T11:28:36;19.50;;;10.63;;
25409;SDS011;13339;50.840;4.346;2024-02-16T11:31:03;22.83;;;10.13;;
25409;SDS011;13339;50.840;4.346;2024-02-16T11:33:30;23.90;;;9.73;;
25409;SDS011;13339;50.840;4.346;2024-02-16T11:38:23;20.43;;;9.87;;
25409;SDS011;13339;50.840;4.346;2024-02-16T11:43:25;19.67;;;10.50;;
25409;SDS011;13339;50.840;4.346;2024-02-16T11:45:51;21.00;;;10.53;;
25409;SDS011;13339;50.840;4.346;2024-02-16T11:48:20;20.47;;;10.37;;
25409;SDS011;13339;50.840;4.346;2024-02-16T11:50:47;22.33;;;10.20;;
25409;SDS011;13339;50.840;4.346;2024-02-16T11:53:17;16.87;;;10.00;;
25409;SDS011;13339;50.840;4.346;2024-02-16T11:55:47;13.40;;;9.57;;
25409;SDS011;13339;50.840;4.346;2024-02-16T11:58:14;22.03;;;10.90;;
25409;SDS011;13339;50.840;4.346;2024-02-16T12:00:42;18.00;;;10.13;;
25409;SDS011;13339;50.840;4.346;2024-02-16T12:03:07;17.70;;;10.67;;
25409;SDS011;13339;50.840;4.346;2024-02-16T12:05:33;15.23;;;9.80;;
25409;SDS011;13339;50.840;4.346;2024-02-16T12:07:59;14.30;;;9.63;;
25409;SDS011;13339;50.840;4.346;2024-02-16T12:10:24;15.00;;;9.80;;
25409;SDS011;13339;50.840;4.346;2024-02-16T12:12:51;14.57;;;9.00;;
25409;SDS011;13339;50.840;4.346;2024-02-16T12:15:17;11.97;;;7.70;;
25409;SDS011;13339;50.840;4.346;2024-02-16T12:17:44;8.93;;;7.03;;
25409;SDS011;13339;50.840;4.346;2024-02-16T12:20:13;10.47;;;6.63;;
25409;SDS011;13339;50.840;4.346;2024-02-16T12:22:39;8.87;;;6.90;;
25409;SDS011;13339;50.840;4.346;2024-02-16T12:25:05;7.00;;;5.57;;
25409;SDS011;13339;50.840;4.346;2024-02-16T12:27:31;7.40;;;5.70;;
25409;SDS011;13339;50.840;4.346;2024-02-16T12:29:56;10.47;;;6.53;;
25409;SDS011;13339;50.840;4.346;2024-02-16T12:32:22;7.90;;;6.90;;
25409;SDS011;13339;50.840;4.346;2024-02-16T12:34:47;8.17;;;6.90;;
25409;SDS011;13339;50.840;4.346;2024-02-16T12:37:14;7.00;;;6.30;;
25409;SDS011;13339;50.840;4.346;2024-02-16T12:39:39;9.13;;;6.40;;
25409;SDS011;13339;50.840;4.346;2024-02-16T12:42:05;8.53;;;6.47;;
25409;SDS011;13339;50.840;4.346;2024-02-16T12:44:31;8.57;;;7.40;;
25409;SDS011;13339;50.840;4.346;2024-02-16T12:46:56;8.53;;;7.60;;
25409;SDS011;13339;50.840;4.346;2024-02-16T12:49:22;9.57;;;7.67;;
25409;SDS011;13339;50.840;4.346;2024-02-16T12:51:48;9.27;;;7.60;;
25409;SDS011;13339;50.840;4.346;2024-02-16T12:54:15;10.40;;;8.00;;
25409;SDS011;13339;50.840;4.346;2024-02-16T12:56:43;10.97;;;8.10;;
25409;SDS011;13339;50.840;4.346;2024-02-16T12:59:10;9.30;;;7.80;;
25409;SDS011;13339;50.840;4.346;2024-02-16T13:01:36;9.67;;;7.87;;
25409;SDS011;13339;50.840;4.346;2024-02-16T13:04:02;12.57;;;8.40;;
25409;SDS011;13339;50.840;4.346;2024-02-16T13:06:27;10.40;;;9.13;;
25409;SDS011;13339;50.840;4.346;2024-02-16T13:08:53;10.30;;;8.70;;
25409;SDS011;13339;50.840;4.346;2024-02-16T13:11:19;12.03;;;9.60;;
25409;SDS011;13339;50.840;4.346;2024-02-16T13:13:44;12.47;;;9.63;;
25409;SDS011;13339;50.840;4.346;2024-02-16T13:16:10;10.70;;;8.93;;
25409;SDS011;13339;50.840;4.346;2024-02-16T13:18:35;11.50;;;9.30;;
25409;SDS011;13339;50.840;4.346;2024-02-16T13:21:01;9.33;;;8.33;;
25409;SDS011;13339;50.840;4.346;2024-02-16T13:23:27;11.43;;;8.70;;
25409;SDS011;13339;50.840;4.346;2024-02-16T13:25:54;11.33;;;8.53;;
25409;SDS011;13339;50.840;4.346;2024-02-16T13:28:20;18.83;;;12.60;;
25409;SDS011;13339;50.840;4.346;2024-02-16T13:30:45;16.87;;;8.67;;
25409;SDS011;13339;50.840;4.346;2024-02-16T13:33:11;11.00;;;8.50;;
25409;SDS011;13339;50.840;4.346;2024-02-16T13:35:37;12.53;;;8.30;;
25409;SDS011;13339;50.840;4.346;2024-02-16T13:38:03;11.47;;;9.07;;
25409;SDS011;13339;50.840;4.346;2024-02-16T13:40:29;11.20;;;8.47;;
25409;SDS011;13339;50.840;4.346;2024-02-16T13:42:55;9.53;;;8.43;;
25409;SDS011;13339;50.840;4.346;2024-02-16T13:45:26;11.07;;;8.90;;
25409;SDS011;13339;50.840;4.346;2024-02-16T13:47:52;9.50;;;7.30;;
25409;SDS011;13339;50.840;4.346;2024-02-16T13:50:18;11.03;;;6.83;;
25409;SDS011;13339;50.840;4.346;2024-02-16T13:52:44;10.87;;;7.30;;
25409;SDS011;13339;50.840;4.346;2024-02-16T13:55:10;9.40;;;6.90;;
25409;SDS011;13339;50.840;4.346;2024-02-16T13:57:36;7.90;;;7.10;;
25409;SDS011;13339;50.840;4.346;2024-02-16T14:00:03;8.47;;;6.97;;
25409;SDS011;13339;50.840;4.346;2024-02-16T14:02:30;9.33;;;7.37;;
25409;SDS011;13339;50.840;4.346;2024-02-16T14:04:56;9.00;;;7.00;;
25409;SDS011;13339;50.840;4.346;2024-02-16T14:07:22;12.13;;;7.80;;
25409;SDS011;13339;50.840;4.346;2024-02-16T14:09:48;8.27;;;6.40;;
25409;SDS011;13339;50.840;4.346;2024-02-16T14:12:13;10.03;;;6.67;;
25409;SDS011;13339;50.840;4.346;2024-02-16T14:14:39;8.53;;;6.13;;
25409;SDS011;13339;50.840;4.346;2024-02-16T14:17:04;7.57;;;5.50;;
25409;SDS011;13339;50.840;4.346;2024-02-16T14:19:30;5.90;;;4.63;;
25409;SDS011;13339;50.840;4.346;2024-02-16T14:21:56;6.67;;;4.90;;
25409;SDS011;13339;50.840;4.346;2024-02-16T14:24:21;7.97;;;4.47;;
25409;SDS011;13339;50.840;4.346;2024-02-16T14:26:47;4.37;;;3.97;;
25409;SDS011;13339;50.840;4.346;2024-02-16T14:29:13;6.63;;;4.47;;
25409;SDS011;13339;50.840;4.346;2024-02-16T14:31:38;5.77;;;3.83;;
25409;SDS011;13339;50.840;4.346;2024-02-16T14:34:04;5.73;;;4.27;;
25409;SDS011;13339;50.840;4.346;2024-02-16T14:36:29;6.07;;;3.63;;
25409;SDS011;13339;50.840;4.346;2024-02-16T14:38:55;5.70;;;4.60;;
25409;SDS011;13339;50.840;4.346;2024-02-16T14:41:20;8.57;;;4.37;;
25409;SDS011;13339;50.840;4.346;2024-02-16T14:43:47;4.80;;;4.30;;